sensor_id;sensor_type;location;lat;lon;timestamp;temperature;humidity
80254;DHT22;69563;37.974;23.708;2023-04-24T00:00:24;21.80;42.00
80254;DHT22;69563;37.974;23.708;2023-04-24T00:02:49;21.80;42.00
80254;DHT22;69563;37.974;23.708;2023-04-24T00:05:16;21.80;42.00
80254;DHT22;69563;37.974;23.708;2023-04-24T00:07:44;21.80;42.00
80254;DHT22;69563;37.974;23.708;2023-04-24T00:10:11;21.80;42.10
80254;DHT22;69563;37.974;23.708;2023-04-24T00:12:37;21.70;42.20
80254;DHT22;69563;37.974;23.708;2023-04-24T00:15:04;21.70;42.20
80254;DHT22;69563;37.974;23.708;2023-04-24T00:17:30;21.70;42.30
80254;DHT22;69563;37.974;23.708;2023-04-24T00:19:56;21.70;42.20
80254;DHT22;69563;37.974;23.708;2023-04-24T00:22:27;21.70;42.40
80254;DHT22;69563;37.974;23.708;2023-04-24T00:24:54;21.70;42.40
80254;DHT22;69563;37.974;23.708;2023-04-24T00:27:20;21.70;42.40
80254;DHT22;69563;37.974;23.708;2023-04-24T00:29:45;21.70;42.40
80254;DHT22;69563;37.974;23.708;2023-04-24T00:32:11;21.60;42.30
80254;DHT22;69563;37.974;23.708;2023-04-24T00:34:37;21.60;42.30
80254;DHT22;69563;37.974;23.708;2023-04-24T00:37:02;21.60;42.30
80254;DHT22;69563;37.974;23.708;2023-04-24T00:39:28;21.60;42.30
80254;DHT22;69563;37.974;23.708;2023-04-24T00:41:54;21.60;43.40
80254;DHT22;69563;37.974;23.708;2023-04-24T00:44:20;21.60;42.50
80254;DHT22;69563;37.974;23.708;2023-04-24T00:46:46;21.60;42.60
80254;DHT22;69563;37.974;23.708;2023-04-24T00:49:18;21.60;42.60
80254;DHT22;69563;37.974;23.708;2023-04-24T00:51:43;21.60;42.50
80254;DHT22;69563;37.974;23.708;2023-04-24T00:54:12;21.60;42.60
80254;DHT22;69563;37.974;23.708;2023-04-24T00:56:37;21.60;42.60
80254;DHT22;69563;37.974;23.708;2023-04-24T00:59:04;21.60;42.70
80254;DHT22;69563;37.974;23.708;2023-04-24T01:01:30;21.60;42.60
80254;DHT22;69563;37.974;23.708;2023-04-24T01:03:57;21.60;42.70
80254;DHT22;69563;37.974;23.708;2023-04-24T01:06:23;21.50;42.70
80254;DHT22;69563;37.974;23.708;2023-04-24T01:08:52;21.50;42.70
80254;DHT22;69563;37.974;23.708;2023-04-24T01:11:18;21.50;42.80
80254;DHT22;69563;37.974;23.708;2023-04-24T01:13:45;21.50;42.80
80254;DHT22;69563;37.974;23.708;2023-04-24T01:16:11;21.50;42.90
80254;DHT22;69563;37.974;23.708;2023-04-24T01:18:37;21.50;42.90
80254;DHT22;69563;37.974;23.708;2023-04-24T01:21:04;21.50;43.00
80254;DHT22;69563;37.974;23.708;2023-04-24T01:23:30;21.40;42.90
80254;DHT22;69563;37.974;23.708;2023-04-24T01:25:55;21.40;43.00
80254;DHT22;69563;37.974;23.708;2023-04-24T01:28:21;21.40;42.90
80254;DHT22;69563;37.974;23.708;2023-04-24T01:30:47;21.40;43.00
80254;DHT22;69563;37.974;23.708;2023-04-24T01:33:13;21.40;43.00
80254;DHT22;69563;37.974;23.708;2023-04-24T01:35:39;21.40;43.10
80254;DHT22;69563;37.974;23.708;2023-04-24T01:38:05;21.40;43.10
80254;DHT22;69563;37.974;23.708;2023-04-24T01:40:31;21.40;43.00
80254;DHT22;69563;37.974;23.708;2023-04-24T01:42:58;21.40;43.00
80254;DHT22;69563;37.974;23.708;2023-04-24T01:45:24;21.40;43.10
80254;DHT22;69563;37.974;23.708;2023-04-24T01:47:50;21.40;43.00
80254;DHT22;69563;37.974;23.708;2023-04-24T01:50:15;21.40;43.10
80254;DHT22;69563;37.974;23.708;2023-04-24T01:52:41;21.40;43.20
80254;DHT22;69563;37.974;23.708;2023-04-24T01:55:07;21.40;43.30
80254;DHT22;69563;37.974;23.708;2023-04-24T01:57:33;21.40;43.30
80254;DHT22;69563;37.974;23.708;2023-04-24T02:00:00;21.40;43.30
80254;DHT22;69563;37.974;23.708;2023-04-24T02:02:26;21.40;43.30
80254;DHT22;69563;37.974;23.708;2023-04-24T02:04:55;21.30;43.20
80254;DHT22;69563;37.974;23.708;2023-04-24T02:07:21;21.30;43.30
80254;DHT22;69563;37.974;23.708;2023-04-24T02:09:47;21.30;43.40
80254;DHT22;69563;37.974;23.708;2023-04-24T02:12:14;21.30;43.40
80254;DHT22;69563;37.974;23.708;2023-04-24T02:14:40;21.30;43.50
80254;DHT22;69563;37.974;23.708;2023-04-24T02:17:07;21.30;43.50
80254;DHT22;69563;37.974;23.708;2023-04-24T02:19:33;21.30;43.40
80254;DHT22;69563;37.974;23.708;2023-04-24T02:21:59;21.30;43.40
80254;DHT22;69563;37.974;23.708;2023-04-24T02:24:25;21.30;43.50
80254;DHT22;69563;37.974;23.708;2023-04-24T02:26:50;21.30;43.60
80254;DHT22;69563;37.974;23.708;2023-04-24T02:29:16;21.20;43.50
80254;DHT22;69563;37.974;23.708;2023-04-24T02:31:42;21.20;43.70
80254;DHT22;69563;37.974;23.708;2023-04-24T02:34:07;21.20;43.50
80254;DHT22;69563;37.974;23.708;2023-04-24T02:36:33;21.20;43.60
80254;DHT22;69563;37.974;23.708;2023-04-24T02:38:59;21.20;43.60
80254;DHT22;69563;37.974;23.708;2023-04-24T02:41:26;21.20;43.70
80254;DHT22;69563;37.974;23.708;2023-04-24T02:43:56;21.20;43.80
80254;DHT22;69563;37.974;23.708;2023-04-24T02:46:22;21.20;43.80
80254;DHT22;69563;37.974;23.708;2023-04-24T02:48:48;21.20;43.80
80254;DHT22;69563;37.974;23.708;2023-04-24T02:51:13;21.10;43.80
80254;DHT22;69563;37.974;23.708;2023-04-24T02:53:39;21.10;43.90
80254;DHT22;69563;37.974;23.708;2023-04-24T02:56:05;21.10;43.90
80254;DHT22;69563;37.974;23.708;2023-04-24T02:58:31;21.10;44.00
80254;DHT22;69563;37.974;23.708;2023-04-24T03:00:56;21.10;44.00
80254;DHT22;69563;37.974;23.708;2023-04-24T03:03:22;21.10;44.00
80254;DHT22;69563;37.974;23.708;2023-04-24T03:05:49;21.10;44.00
80254;DHT22;69563;37.974;23.708;2023-04-24T03:08:16;21.10;44.00
80254;DHT22;69563;37.974;23.708;2023-04-24T03:10:42;21.10;44.10
80254;DHT22;69563;37.974;23.708;2023-04-24T03:13:07;21.10;44.00
80254;DHT22;69563;37.974;23.708;2023-04-24T03:15:33;21.10;44.00
80254;DHT22;69563;37.974;23.708;2023-04-24T03:17:59;21.10;44.10
80254;DHT22;69563;37.974;23.708;2023-04-24T03:20:26;21.10;44.20
80254;DHT22;69563;37.974;23.708;2023-04-24T03:22:51;21.10;44.20
80254;DHT22;69563;37.974;23.708;2023-04-24T03:25:17;21.00;44.20
80254;DHT22;69563;37.974;23.708;2023-04-24T03:27:43;21.00;44.20
80254;DHT22;69563;37.974;23.708;2023-04-24T03:30:09;21.00;44.30
80254;DHT22;69563;37.974;23.708;2023-04-24T03:32:35;21.00;44.30
80254;DHT22;69563;37.974;23.708;2023-04-24T03:35:00;21.00;44.30
80254;DHT22;69563;37.974;23.708;2023-04-24T03:37:26;21.00;44.90
80254;DHT22;69563;37.974;23.708;2023-04-24T03:39:52;21.10;45.00
80254;DHT22;69563;37.974;23.708;2023-04-24T03:42:18;21.10;45.40
80254;DHT22;69563;37.974;23.708;2023-04-24T03:44:43;21.10;45.50
80254;DHT22;69563;37.974;23.708;2023-04-24T03:47:09;21.10;45.40
80254;DHT22;69563;37.974;23.708;2023-04-24T03:49:35;21.20;46.20
80254;DHT22;69563;37.974;23.708;2023-04-24T03:52:01;21.10;45.20
80254;DHT22;69563;37.974;23.708;2023-04-24T03:54:27;21.10;45.00
80254;DHT22;69563;37.974;23.708;2023-04-24T03:56:53;21.20;45.10
80254;DHT22;69563;37.974;23.708;2023-04-24T03:59:18;21.20;45.00
80254;DHT22;69563;37.974;23.708;2023-04-24T04:01:44;21.20;45.00
80254;DHT22;69563;37.974;23.708;2023-04-24T04:04:10;21.20;45.00
80254;DHT22;69563;37.974;23.708;2023-04-24T04:06:36;21.20;45.00
80254;DHT22;69563;37.974;23.708;2023-04-24T04:09:02;21.10;45.10
80254;DHT22;69563;37.974;23.708;2023-04-24T04:11:28;21.10;45.10
80254;DHT22;69563;37.974;23.708;2023-04-24T04:13:54;21.10;45.10
80254;DHT22;69563;37.974;23.708;2023-04-24T04:16:20;21.10;45.30
80254;DHT22;69563;37.974;23.708;2023-04-24T04:18:46;21.20;45.90
80254;DHT22;69563;37.974;23.708;2023-04-24T04:21:12;21.20;45.70
80254;DHT22;69563;37.974;23.708;2023-04-24T04:23:38;21.20;46.20
80254;DHT22;69563;37.974;23.708;2023-04-24T04:26:05;21.30;46.40
80254;DHT22;69563;37.974;23.708;2023-04-24T04:28:31;21.40;46.20
80254;DHT22;69563;37.974;23.708;2023-04-24T04:30:58;21.40;46.40
80254;DHT22;69563;37.974;23.708;2023-04-24T04:33:24;21.40;46.00
80254;DHT22;69563;37.974;23.708;2023-04-24T04:35:50;21.50;45.80
80254;DHT22;69563;37.974;23.708;2023-04-24T04:38:22;21.50;45.60
80254;DHT22;69563;37.974;23.708;2023-04-24T04:40:48;21.60;45.40
80254;DHT22;69563;37.974;23.708;2023-04-24T04:43:14;21.60;45.10
80254;DHT22;69563;37.974;23.708;2023-04-24T04:45:43;21.70;44.90
80254;DHT22;69563;37.974;23.708;2023-04-24T04:48:10;21.70;44.80
80254;DHT22;69563;37.974;23.708;2023-04-24T04:50:38;21.80;44.60
80254;DHT22;69563;37.974;23.708;2023-04-24T04:53:04;21.80;44.50
80254;DHT22;69563;37.974;23.708;2023-04-24T04:55:31;21.90;44.40
80254;DHT22;69563;37.974;23.708;2023-04-24T04:57:56;21.90;44.30
80254;DHT22;69563;37.974;23.708;2023-04-24T05:00:22;22.00;44.20
80254;DHT22;69563;37.974;23.708;2023-04-24T05:02:51;22.00;44.10
80254;DHT22;69563;37.974;23.708;2023-04-24T05:05:17;22.10;43.90
80254;DHT22;69563;37.974;23.708;2023-04-24T05:07:43;22.20;43.80
80254;DHT22;69563;37.974;23.708;2023-04-24T05:10:09;22.20;43.50
80254;DHT22;69563;37.974;23.708;2023-04-24T05:12:36;22.30;43.40
80254;DHT22;69563;37.974;23.708;2023-04-24T05:15:02;22.40;43.30
80254;DHT22;69563;37.974;23.708;2023-04-24T05:17:28;22.40;43.10
80254;DHT22;69563;37.974;23.708;2023-04-24T05:19:54;22.50;42.80
80254;DHT22;69563;37.974;23.708;2023-04-24T05:22:20;22.60;42.80
80254;DHT22;69563;37.974;23.708;2023-04-24T05:24:47;22.70;42.60
80254;DHT22;69563;37.974;23.708;2023-04-24T05:27:13;22.80;42.40
80254;DHT22;69563;37.974;23.708;2023-04-24T05:29:39;22.90;42.20
80254;DHT22;69563;37.974;23.708;2023-04-24T05:32:05;23.00;41.80
80254;DHT22;69563;37.974;23.708;2023-04-24T05:34:31;23.10;41.70
80254;DHT22;69563;37.974;23.708;2023-04-24T05:36:57;23.20;41.50
80254;DHT22;69563;37.974;23.708;2023-04-24T05:39:23;23.30;41.50
80254;DHT22;69563;37.974;23.708;2023-04-24T05:41:50;23.50;41.30
80254;DHT22;69563;37.974;23.708;2023-04-24T05:44:16;23.50;41.10
80254;DHT22;69563;37.974;23.708;2023-04-24T05:46:42;23.60;40.90
80254;DHT22;69563;37.974;23.708;2023-04-24T05:49:08;23.70;41.70
80254;DHT22;69563;37.974;23.708;2023-04-24T05:51:33;23.80;40.50
80254;DHT22;69563;37.974;23.708;2023-04-24T05:53:59;23.90;40.30
80254;DHT22;69563;37.974;23.708;2023-04-24T05:56:25;24.00;40.00
80254;DHT22;69563;37.974;23.708;2023-04-24T05:58:50;24.10;39.80
80254;DHT22;69563;37.974;23.708;2023-04-24T06:01:16;24.20;39.60
80254;DHT22;69563;37.974;23.708;2023-04-24T06:03:42;24.30;39.40
80254;DHT22;69563;37.974;23.708;2023-04-24T06:06:08;24.40;39.10
80254;DHT22;69563;37.974;23.708;2023-04-24T06:08:35;24.50;39.00
80254;DHT22;69563;37.974;23.708;2023-04-24T06:11:01;24.60;38.90
80254;DHT22;69563;37.974;23.708;2023-04-24T06:13:27;24.70;38.70
80254;DHT22;69563;37.974;23.708;2023-04-24T06:15:52;24.80;38.60
80254;DHT22;69563;37.974;23.708;2023-04-24T06:18:19;24.90;38.40
80254;DHT22;69563;37.974;23.708;2023-04-24T06:20:46;25.00;38.30
80254;DHT22;69563;37.974;23.708;2023-04-24T06:23:13;25.00;38.10
80254;DHT22;69563;37.974;23.708;2023-04-24T06:25:38;25.10;38.00
80254;DHT22;69563;37.974;23.708;2023-04-24T06:28:04;25.20;37.80
80254;DHT22;69563;37.974;23.708;2023-04-24T06:30:30;25.30;37.80
80254;DHT22;69563;37.974;23.708;2023-04-24T06:32:56;25.40;37.70
80254;DHT22;69563;37.974;23.708;2023-04-24T06:35:22;25.50;37.50
80254;DHT22;69563;37.974;23.708;2023-04-24T06:37:47;25.50;37.30
80254;DHT22;69563;37.974;23.708;2023-04-24T06:40:13;25.60;37.10
80254;DHT22;69563;37.974;23.708;2023-04-24T06:42:39;25.70;37.00
80254;DHT22;69563;37.974;23.708;2023-04-24T06:45:05;25.80;37.00
80254;DHT22;69563;37.974;23.708;2023-04-24T06:47:31;25.90;36.90
80254;DHT22;69563;37.974;23.708;2023-04-24T06:49:57;25.90;36.70
80254;DHT22;69563;37.974;23.708;2023-04-24T06:52:23;26.00;36.60
80254;DHT22;69563;37.974;23.708;2023-04-24T06:54:49;26.10;36.60
80254;DHT22;69563;37.974;23.708;2023-04-24T06:57:14;26.10;36.40
80254;DHT22;69563;37.974;23.708;2023-04-24T06:59:42;26.20;36.40
80254;DHT22;69563;37.974;23.708;2023-04-24T07:02:07;26.30;36.30
80254;DHT22;69563;37.974;23.708;2023-04-24T07:04:33;26.30;36.20
80254;DHT22;69563;37.974;23.708;2023-04-24T07:06:59;26.40;36.10
80254;DHT22;69563;37.974;23.708;2023-04-24T07:09:25;26.40;35.90
80254;DHT22;69563;37.974;23.708;2023-04-24T07:11:54;26.50;35.80
80254;DHT22;69563;37.974;23.708;2023-04-24T07:14:21;26.60;35.80
80254;DHT22;69563;37.974;23.708;2023-04-24T07:16:48;26.60;35.70
80254;DHT22;69563;37.974;23.708;2023-04-24T07:19:13;26.70;35.60
80254;DHT22;69563;37.974;23.708;2023-04-24T07:21:39;26.70;35.70
80254;DHT22;69563;37.974;23.708;2023-04-24T07:24:09;26.80;35.70
80254;DHT22;69563;37.974;23.708;2023-04-24T07:26:37;26.80;35.50
80254;DHT22;69563;37.974;23.708;2023-04-24T07:29:03;26.90;35.60
80254;DHT22;69563;37.974;23.708;2023-04-24T07:31:33;26.90;35.50
80254;DHT22;69563;37.974;23.708;2023-04-24T07:33:58;27.00;35.50
80254;DHT22;69563;37.974;23.708;2023-04-24T07:36:24;27.00;35.40
80254;DHT22;69563;37.974;23.708;2023-04-24T07:38:51;27.00;35.20
80254;DHT22;69563;37.974;23.708;2023-04-24T07:41:21;27.10;35.20
80254;DHT22;69563;37.974;23.708;2023-04-24T07:43:49;27.10;35.10
80254;DHT22;69563;37.974;23.708;2023-04-24T07:46:15;27.10;35.00
80254;DHT22;69563;37.974;23.708;2023-04-24T07:48:41;27.10;34.90
80254;DHT22;69563;37.974;23.708;2023-04-24T07:51:07;27.20;34.90
80254;DHT22;69563;37.974;23.708;2023-04-24T07:53:35;27.20;34.90
80254;DHT22;69563;37.974;23.708;2023-04-24T07:56:01;27.20;34.90
80254;DHT22;69563;37.974;23.708;2023-04-24T07:58:30;27.20;35.00
80254;DHT22;69563;37.974;23.708;2023-04-24T08:00:55;27.10;35.20
80254;DHT22;69563;37.974;23.708;2023-04-24T08:03:21;27.10;35.40
80254;DHT22;69563;37.974;23.708;2023-04-24T08:05:47;27.00;35.40
80254;DHT22;69563;37.974;23.708;2023-04-24T08:08:13;26.90;35.60
80254;DHT22;69563;37.974;23.708;2023-04-24T08:10:42;26.80;35.70
80254;DHT22;69563;37.974;23.708;2023-04-24T08:13:07;26.70;36.00
80254;DHT22;69563;37.974;23.708;2023-04-24T08:15:39;26.50;36.30
80254;DHT22;69563;37.974;23.708;2023-04-24T08:18:07;26.40;36.50
80254;DHT22;69563;37.974;23.708;2023-04-24T08:20:32;26.40;36.80
80254;DHT22;69563;37.974;23.708;2023-04-24T08:22:58;26.20;36.90
80254;DHT22;69563;37.974;23.708;2023-04-24T08:25:26;26.20;37.20
80254;DHT22;69563;37.974;23.708;2023-04-24T08:27:52;26.10;37.30
80254;DHT22;69563;37.974;23.708;2023-04-24T08:30:18;26.00;37.50
80254;DHT22;69563;37.974;23.708;2023-04-24T08:32:47;26.00;37.70
80254;DHT22;69563;37.974;23.708;2023-04-24T08:35:13;26.00;37.90
80254;DHT22;69563;37.974;23.708;2023-04-24T08:37:40;26.10;38.10
80254;DHT22;69563;37.974;23.708;2023-04-24T08:40:17;26.10;38.30
80254;DHT22;69563;37.974;23.708;2023-04-24T08:42:44;26.10;38.20
80254;DHT22;69563;37.974;23.708;2023-04-24T08:45:11;26.10;38.20
80254;DHT22;69563;37.974;23.708;2023-04-24T08:47:38;26.20;38.40
80254;DHT22;69563;37.974;23.708;2023-04-24T08:50:06;26.20;38.40
80254;DHT22;69563;37.974;23.708;2023-04-24T08:52:33;26.20;38.30
80254;DHT22;69563;37.974;23.708;2023-04-24T08:55:00;26.20;38.30
80254;DHT22;69563;37.974;23.708;2023-04-24T08:57:27;26.20;38.40
80254;DHT22;69563;37.974;23.708;2023-04-24T08:59:53;26.20;38.40
80254;DHT22;69563;37.974;23.708;2023-04-24T09:02:21;26.10;38.30
80254;DHT22;69563;37.974;23.708;2023-04-24T09:04:47;26.20;38.40
80254;DHT22;69563;37.974;23.708;2023-04-24T09:07:15;26.20;38.20
80254;DHT22;69563;37.974;23.708;2023-04-24T09:09:42;26.20;38.10
80254;DHT22;69563;37.974;23.708;2023-04-24T09:12:08;26.20;38.00
80254;DHT22;69563;37.974;23.708;2023-04-24T09:14:36;26.20;37.80
80254;DHT22;69563;37.974;23.708;2023-04-24T09:17:05;26.20;37.80
80254;DHT22;69563;37.974;23.708;2023-04-24T09:19:34;26.20;37.90
80254;DHT22;69563;37.974;23.708;2023-04-24T09:22:05;26.20;37.80
80254;DHT22;69563;37.974;23.708;2023-04-24T09:24:31;26.20;37.80
80254;DHT22;69563;37.974;23.708;2023-04-24T09:26:58;26.10;37.70
80254;DHT22;69563;37.974;23.708;2023-04-24T09:29:24;26.10;37.90
80254;DHT22;69563;37.974;23.708;2023-04-24T09:31:50;26.10;37.90
80254;DHT22;69563;37.974;23.708;2023-04-24T09:34:22;26.00;37.90
80254;DHT22;69563;37.974;23.708;2023-04-24T09:36:48;26.00;38.30
80254;DHT22;69563;37.974;23.708;2023-04-24T09:39:15;26.00;38.30
80254;DHT22;69563;37.974;23.708;2023-04-24T09:41:57;26.00;38.30
80254;DHT22;69563;37.974;23.708;2023-04-24T09:44:25;26.00;38.30
80254;DHT22;69563;37.974;23.708;2023-04-24T09:46:54;26.10;38.40
80254;DHT22;69563;37.974;23.708;2023-04-24T09:49:29;26.00;38.50
80254;DHT22;69563;37.974;23.708;2023-04-24T09:52:06;26.00;38.50
80254;DHT22;69563;37.974;23.708;2023-04-24T09:54:32;26.10;38.60
80254;DHT22;69563;37.974;23.708;2023-04-24T09:56:58;26.00;38.60
80254;DHT22;69563;37.974;23.708;2023-04-24T09:59:25;26.10;38.70
80254;DHT22;69563;37.974;23.708;2023-04-24T10:01:51;26.10;38.70
80254;DHT22;69563;37.974;23.708;2023-04-24T10:04:21;26.00;38.90
80254;DHT22;69563;37.974;23.708;2023-04-24T10:06:49;26.00;38.90
80254;DHT22;69563;37.974;23.708;2023-04-24T10:09:16;26.00;38.90
80254;DHT22;69563;37.974;23.708;2023-04-24T10:11:44;26.00;38.90
80254;DHT22;69563;37.974;23.708;2023-04-24T10:14:15;26.00;38.90
80254;DHT22;69563;37.974;23.708;2023-04-24T10:16:41;26.00;38.80
80254;DHT22;69563;37.974;23.708;2023-04-24T10:19:08;26.10;38.90
80254;DHT22;69563;37.974;23.708;2023-04-24T10:21:34;26.00;38.90
80254;DHT22;69563;37.974;23.708;2023-04-24T10:24:01;26.00;39.00
80254;DHT22;69563;37.974;23.708;2023-04-24T10:26:31;26.00;39.20
80254;DHT22;69563;37.974;23.708;2023-04-24T10:29:01;26.00;39.20
80254;DHT22;69563;37.974;23.708;2023-04-24T10:31:27;26.00;39.40
80254;DHT22;69563;37.974;23.708;2023-04-24T10:33:58;26.00;39.30
80254;DHT22;69563;37.974;23.708;2023-04-24T10:36:25;25.90;39.30
80254;DHT22;69563;37.974;23.708;2023-04-24T10:38:54;26.00;39.40
80254;DHT22;69563;37.974;23.708;2023-04-24T10:41:21;25.90;39.30
80254;DHT22;69563;37.974;23.708;2023-04-24T10:44:07;25.90;39.40
80254;DHT22;69563;37.974;23.708;2023-04-24T10:46:33;25.90;39.40
80254;DHT22;69563;37.974;23.708;2023-04-24T10:48:59;25.90;39.40
80254;DHT22;69563;37.974;23.708;2023-04-24T10:51:49;25.90;39.40
80254;DHT22;69563;37.974;23.708;2023-04-24T10:54:44;25.90;39.40
80254;DHT22;69563;37.974;23.708;2023-04-24T10:59:50;25.90;39.60
80254;DHT22;69563;37.974;23.708;2023-04-24T11:02:17;25.90;39.60
80254;DHT22;69563;37.974;23.708;2023-04-24T11:04:44;25.90;39.60
80254;DHT22;69563;37.974;23.708;2023-04-24T11:07:11;25.90;39.60
80254;DHT22;69563;37.974;23.708;2023-04-24T11:09:38;25.80;39.60
80254;DHT22;69563;37.974;23.708;2023-04-24T11:12:06;25.80;39.70
80254;DHT22;69563;37.974;23.708;2023-04-24T11:17:31;25.80;39.70
80254;DHT22;69563;37.974;23.708;2023-04-24T11:20:11;25.80;39.70
80254;DHT22;69563;37.974;23.708;2023-04-24T11:22:38;25.80;39.70
80254;DHT22;69563;37.974;23.708;2023-04-24T11:25:08;25.80;39.70
80254;DHT22;69563;37.974;23.708;2023-04-24T11:27:44;25.70;39.60
80254;DHT22;69563;37.974;23.708;2023-04-24T11:30:18;25.70;39.60
80254;DHT22;69563;37.974;23.708;2023-04-24T11:33:02;25.80;39.60
80254;DHT22;69563;37.974;23.708;2023-04-24T11:35:29;25.70;39.40
80254;DHT22;69563;37.974;23.708;2023-04-24T11:37:56;25.70;39.40
80254;DHT22;69563;37.974;23.708;2023-04-24T11:40:22;25.70;39.40
80254;DHT22;69563;37.974;23.708;2023-04-24T11:42:50;25.70;39.40
80254;DHT22;69563;37.974;23.708;2023-04-24T11:45:26;25.70;39.40
80254;DHT22;69563;37.974;23.708;2023-04-24T11:47:52;25.70;39.50
80254;DHT22;69563;37.974;23.708;2023-04-24T11:50:21;25.70;39.50
80254;DHT22;69563;37.974;23.708;2023-04-24T11:52:48;25.70;39.50
80254;DHT22;69563;37.974;23.708;2023-04-24T11:57:51;25.70;39.80
80254;DHT22;69563;37.974;23.708;2023-04-24T12:00:23;25.70;39.80
80254;DHT22;69563;37.974;23.708;2023-04-24T12:02:50;25.60;39.80
80254;DHT22;69563;37.974;23.708;2023-04-24T12:05:27;25.60;39.90
80254;DHT22;69563;37.974;23.708;2023-04-24T12:07:53;25.60;40.00
80254;DHT22;69563;37.974;23.708;2023-04-24T12:10:27;25.60;40.00
80254;DHT22;69563;37.974;23.708;2023-04-24T12:12:55;25.60;40.10
80254;DHT22;69563;37.974;23.708;2023-04-24T12:15:22;25.60;40.20
80254;DHT22;69563;37.974;23.708;2023-04-24T12:17:50;25.60;40.30
80254;DHT22;69563;37.974;23.708;2023-04-24T12:20:15;25.60;40.30
80254;DHT22;69563;37.974;23.708;2023-04-24T12:22:48;25.60;40.40
80254;DHT22;69563;37.974;23.708;2023-04-24T12:25:16;25.60;40.50
80254;DHT22;69563;37.974;23.708;2023-04-24T12:27:50;25.60;40.40
80254;DHT22;69563;37.974;23.708;2023-04-24T12:30:17;25.50;40.30
80254;DHT22;69563;37.974;23.708;2023-04-24T12:32:48;25.50;40.30
80254;DHT22;69563;37.974;23.708;2023-04-24T12:35:19;25.50;40.20
80254;DHT22;69563;37.974;23.708;2023-04-24T12:37:46;25.50;40.10
80254;DHT22;69563;37.974;23.708;2023-04-24T12:40:13;25.50;40.00
80254;DHT22;69563;37.974;23.708;2023-04-24T12:42:45;25.50;40.10
80254;DHT22;69563;37.974;23.708;2023-04-24T12:45:12;25.50;40.10
80254;DHT22;69563;37.974;23.708;2023-04-24T12:47:38;25.50;39.90
80254;DHT22;69563;37.974;23.708;2023-04-24T12:50:06;25.50;39.90
80254;DHT22;69563;37.974;23.708;2023-04-24T12:52:32;25.50;39.90
80254;DHT22;69563;37.974;23.708;2023-04-24T12:54:59;25.50;40.00
80254;DHT22;69563;37.974;23.708;2023-04-24T12:57:27;25.50;39.90
80254;DHT22;69563;37.974;23.708;2023-04-24T12:59:58;25.50;39.90
80254;DHT22;69563;37.974;23.708;2023-04-24T13:02:25;25.50;39.70
80254;DHT22;69563;37.974;23.708;2023-04-24T13:04:52;25.40;39.50
80254;DHT22;69563;37.974;23.708;2023-04-24T13:07:18;25.50;39.60
80254;DHT22;69563;37.974;23.708;2023-04-24T13:09:44;25.40;39.40
80254;DHT22;69563;37.974;23.708;2023-04-24T13:12:11;25.40;39.20
80254;DHT22;69563;37.974;23.708;2023-04-24T13:14:38;25.40;39.00
80254;DHT22;69563;37.974;23.708;2023-04-24T13:17:04;25.40;38.80
80254;DHT22;69563;37.974;23.708;2023-04-24T13:19:36;25.40;38.60
80254;DHT22;69563;37.974;23.708;2023-04-24T13:22:01;25.40;38.60
80254;DHT22;69563;37.974;23.708;2023-04-24T13:24:27;25.30;38.60
80254;DHT22;69563;37.974;23.708;2023-04-24T13:26:53;25.30;38.80
80254;DHT22;69563;37.974;23.708;2023-04-24T13:29:19;25.30;38.90
80254;DHT22;69563;37.974;23.708;2023-04-24T13:31:46;25.30;39.00
80254;DHT22;69563;37.974;23.708;2023-04-24T13:34:13;25.30;39.00
80254;DHT22;69563;37.974;23.708;2023-04-24T13:36:39;25.30;39.00
80254;DHT22;69563;37.974;23.708;2023-04-24T13:39:05;25.20;38.90
80254;DHT22;69563;37.974;23.708;2023-04-24T13:41:33;25.20;39.00
80254;DHT22;69563;37.974;23.708;2023-04-24T13:43:59;25.20;39.20
80254;DHT22;69563;37.974;23.708;2023-04-24T13:46:25;25.20;39.40
80254;DHT22;69563;37.974;23.708;2023-04-24T13:48:51;25.20;39.50
80254;DHT22;69563;37.974;23.708;2023-04-24T13:51:16;25.10;39.40
80254;DHT22;69563;37.974;23.708;2023-04-24T13:53:42;25.10;39.50
80254;DHT22;69563;37.974;23.708;2023-04-24T13:56:08;25.10;39.60
80254;DHT22;69563;37.974;23.708;2023-04-24T13:58:35;25.10;39.70
80254;DHT22;69563;37.974;23.708;2023-04-24T14:01:02;25.10;39.80
80254;DHT22;69563;37.974;23.708;2023-04-24T14:03:28;25.10;40.00
80254;DHT22;69563;37.974;23.708;2023-04-24T14:05:54;25.00;40.00
80254;DHT22;69563;37.974;23.708;2023-04-24T14:08:20;25.00;40.10
80254;DHT22;69563;37.974;23.708;2023-04-24T14:10:46;25.00;40.50
80254;DHT22;69563;37.974;23.708;2023-04-24T14:13:12;25.00;40.30
80254;DHT22;69563;37.974;23.708;2023-04-24T14:15:38;25.00;40.30
80254;DHT22;69563;37.974;23.708;2023-04-24T14:18:03;25.00;40.40
80254;DHT22;69563;37.974;23.708;2023-04-24T14:20:30;25.00;40.50
80254;DHT22;69563;37.974;23.708;2023-04-24T14:22:56;25.00;40.60
80254;DHT22;69563;37.974;23.708;2023-04-24T14:25:24;24.90;40.50
80254;DHT22;69563;37.974;23.708;2023-04-24T14:27:51;24.90;40.50
80254;DHT22;69563;37.974;23.708;2023-04-24T14:30:17;24.90;40.50
80254;DHT22;69563;37.974;23.708;2023-04-24T14:32:43;24.90;40.40
80254;DHT22;69563;37.974;23.708;2023-04-24T14:35:08;24.90;40.30
80254;DHT22;69563;37.974;23.708;2023-04-24T14:37:34;24.90;40.10
80254;DHT22;69563;37.974;23.708;2023-04-24T14:40:01;24.90;40.00
80254;DHT22;69563;37.974;23.708;2023-04-24T14:42:27;24.80;39.90
80254;DHT22;69563;37.974;23.708;2023-04-24T14:44:54;24.80;40.00
80254;DHT22;69563;37.974;23.708;2023-04-24T14:47:20;24.80;40.00
80254;DHT22;69563;37.974;23.708;2023-04-24T14:49:48;24.80;40.10
80254;DHT22;69563;37.974;23.708;2023-04-24T14:52:13;24.80;40.20
80254;DHT22;69563;37.974;23.708;2023-04-24T14:54:39;24.80;40.40
80254;DHT22;69563;37.974;23.708;2023-04-24T14:57:05;24.80;40.60
80254;DHT22;69563;37.974;23.708;2023-04-24T14:59:31;24.80;40.90
80254;DHT22;69563;37.974;23.708;2023-04-24T15:01:57;24.70;41.10
80254;DHT22;69563;37.974;23.708;2023-04-24T15:04:27;24.80;41.30
80254;DHT22;69563;37.974;23.708;2023-04-24T15:06:54;24.70;41.00
80254;DHT22;69563;37.974;23.708;2023-04-24T15:09:21;24.70;40.90
80254;DHT22;69563;37.974;23.708;2023-04-24T15:11:47;24.70;40.80
80254;DHT22;69563;37.974;23.708;2023-04-24T15:14:14;24.70;40.70
80254;DHT22;69563;37.974;23.708;2023-04-24T15:16:40;24.70;40.30
80254;DHT22;69563;37.974;23.708;2023-04-24T15:19:05;24.60;39.60
80254;DHT22;69563;37.974;23.708;2023-04-24T15:21:31;24.60;40.00